Aeroporto :
LOGIN :

Iscrizione | Disclaimer

   EN    FR    IT 

 










Sommario :    VFR   VFR Marginale   IFR   IFR Intensivo   IFR Molto Intensivo
Visibilità : 
Base nubi : 
>= 8 km
>= 3000ft
5 / 8 km
1000 / 3000 ft
1500m / 5 km
500 / 1000 ft
800 / 1500m
200 / 500 ft
< 800m
< 200 ft
Simboli :   Temporali  Nebbia  Neve Forte  Precipitazioni Forti  Vento > 20 kt
SIGMETs :   Varie  Temporali  Ghiacco  Turbolenza  Onda orograficha  Ceneri Vulcaniche






- Altitudine del aeroporto : 14 ft
- Codice IATA : LXS


LGLM - Ifaistos

ULTIMO METAR :
  • 040950Z 05007KT 6000 -RA FEW010 BKN020 11/10 Q1013

METARs OBSOLETI :
  • 040920Z 06007KT 6000 -RA FEW010 BKN020 11/10 Q1014
  • 040850Z 06010KT 6000 -RA FEW010 BKN020 11/10 Q1013
  • 040820Z 05010KT 6000 RA FEW010 BKN020 11/09 Q1013
  • 040750Z 05009KT 6000 RA FEW010 BKN020 11/09 Q1013
  • 040720Z 06006KT 6000 RA FEW010 BKN020 11/10 Q1014

TAF TAF LGLM
Valido dal 04 a 09 ore il 04 a 18 ore UTC


040800Z 0409/0418 04015G25KT 9999 FEW010 BKN020
TEMPO 0409/0418 5000 RA
PROB40
TEMPO 0415/0418 2000 TSRA FEW016CB BKN020



MetMap, La meteo Aeronautica in un colpo d'occhio ! - Copyright ORBIFLY Dicembre 2007 - Disclaimer

ORBIFLY MET'MAP TEAM :

Programmazione e sviluppo : Alexandra Zaïnal
Concezione : Baudouin d'Aumeries
Aiuto per la programmazione : Marc-Olivier Méhu
Supporto tecnico e logistico : Manuel Goepfert
Aiuto per la traduzione : Arnaldo La Scala

Contatto : metmap@orbifly.com




FONTI E CREDITI :

   NOAA